Time;durP1;ratioP1;P1;durP2;ratioP2;P2;SDS_P1;SDS_P2;PMS_P1;PMS_P2;Temp;Humidity;BMP_temperature;BMP_pressure;BME280_temperature;BME280_humidity;BME280_pressure;Samples;Min_cycle;Max_cycle;Signal;HPM_P1;HPM_P2
2022/10/05 00:02:23;;;;;;;120.32;113.72;;;14.70;99.90;;;;;;4968972;28;20399;-59
2022/10/05 00:04:52;;;;;;;124.97;118.18;;;14.70;99.90;;;;;;4969718;28;20388;-58
2022/10/05 00:07:20;;;;;;;123.15;116.65;;;14.70;99.90;;;;;;4971534;28;20420;-58
2022/10/05 00:09:57;;;;;;;120.53;114.10;;;14.70;99.90;;;;;;4972583;28;20384;-57
2022/10/05 00:12:24;;;;;;;119.45;112.95;;;14.70;99.90;;;;;;4972652;28;20890;-59
2022/10/05 00:14:52;;;;;;;117.80;111.40;;;14.70;99.90;;;;;;4972753;28;20827;-58
2022/10/05 00:17:26;;;;;;;103.45;97.75;;;14.80;99.90;;;;;;4971022;28;20435;-58
2022/10/05 00:19:53;;;;;;;120.22;114.05;;;14.80;99.90;;;;;;4973420;28;20412;-58
2022/10/05 00:22:28;;;;;;;113.22;107.22;;;14.80;99.90;;;;;;4971687;28;21098;-54
2022/10/05 00:24:59;;;;;;;108.00;102.30;;;14.80;99.90;;;;;;4971495;28;20394;-52
2022/10/05 00:27:35;;;;;;;112.93;107.10;;;14.70;99.90;;;;;;4971985;28;20479;-56
2022/10/05 00:30:14;;;;;;;107.18;101.57;;;14.70;99.90;;;;;;4971448;28;20435;-55
2022/10/05 00:32:40;;;;;;;104.50;98.75;;;14.70;99.90;;;;;;4971201;28;20423;-58
2022/10/05 00:35:07;;;;;;;93.35;88.32;;;14.60;99.90;;;;;;4969887;28;20396;-56
2022/10/05 00:37:32;;;;;;;92.95;87.72;;;14.60;99.90;;;;;;4972061;28;20735;-57
2022/10/05 00:39:58;;;;;;;83.15;78.55;;;14.50;99.90;;;;;;4971564;28;20412;-58
2022/10/05 00:42:38;;;;;;;75.43;71.00;;;14.40;99.90;;;;;;4972211;28;20671;-58
2022/10/05 00:45:20;;;;;;;73.35;69.25;;;14.40;99.90;;;;;;4972309;28;20411;-58
2022/10/05 00:47:55;;;;;;;84.18;79.40;;;14.40;99.90;;;;;;4974433;28;20592;-58
2022/10/05 00:50:20;;;;;;;66.97;63.08;;;14.40;99.90;;;;;;4974677;28;20399;-55
2022/10/05 00:53:01;;;;;;;74.32;70.10;;;14.30;99.90;;;;;;4975394;28;20388;-56
2022/10/05 00:55:58;;;;;;;70.75;66.25;;;14.30;99.90;;;;;;4974879;28;20388;-58
2022/10/05 00:58:26;;;;;;;63.17;59.25;;;14.30;99.90;;;;;;4945728;28;20431;-59
2022/10/05 01:00:56;;;;;;;67.50;63.15;;;14.30;99.90;;;;;;4970319;28;20427;-58
2022/10/05 01:03:37;;;;;;;59.45;55.78;;;14.20;99.90;;;;;;4970908;28;20652;-57
2022/10/05 01:06:21;;;;;;;59.88;56.30;;;14.20;99.90;;;;;;4969876;28;20388;-59
2022/10/05 01:08:47;;;;;;;57.83;54.22;;;14.20;99.90;;;;;;4970903;28;20443;-56
2022/10/05 01:11:25;;;;;;;61.10;57.60;;;14.30;99.90;;;;;;4971002;28;20396;-58
2022/10/05 01:14:20;;;;;;;63.50;59.83;;;14.30;99.90;;;;;;4972670;28;20514;-59
2022/10/05 01:17:04;;;;;;;67.95;63.80;;;14.30;99.90;;;;;;4973508;28;20871;-56
2022/10/05 01:19:35;;;;;;;58.92;55.53;;;14.30;99.90;;;;;;4970580;28;20395;-57
2022/10/05 01:22:21;;;;;;;65.83;61.93;;;14.30;99.90;;;;;;4972919;28;20796;-55
2022/10/05 01:25:19;;;;;;;66.07;62.10;;;14.40;99.90;;;;;;4971443;28;20733;-56
2022/10/05 01:28:42;;;;;;;67.20;62.92;;;14.30;99.90;;;;;;4970113;28;20716;-57
2022/10/05 01:31:16;;;;;;;69.72;65.53;;;14.30;99.90;;;;;;4895616;29;20413;-57
2022/10/05 01:34:30;;;;;;;66.82;62.85;;;14.20;99.90;;;;;;4895833;29;20829;-57
2022/10/05 01:37:17;;;;;;;59.47;55.78;;;14.20;99.90;;;;;;4970395;28;20487;-58
2022/10/05 01:39:54;;;;;;;65.30;61.47;;;14.20;99.90;;;;;;4971452;28;20804;-58
2022/10/05 01:42:28;;;;;;;60.87;57.13;;;14.10;99.90;;;;;;4972627;28;20822;-58
2022/10/05 01:45:17;;;;;;;52.85;49.38;;;14.10;99.90;;;;;;4972689;28;20482;-54
2022/10/05 01:47:44;;;;;;;53.08;49.97;;;14.10;99.90;;;;;;4966378;28;20404;-58
2022/10/05 01:50:21;;;;;;;62.97;58.97;;;14.10;99.90;;;;;;4974517;28;20395;-59
2022/10/05 01:52:59;;;;;;;61.70;57.72;;;14.10;99.90;;;;;;4974216;28;20471;-58
2022/10/05 01:55:34;;;;;;;57.40;53.70;;;14.10;99.90;;;;;;4973255;28;20400;-59
2022/10/05 01:58:12;;;;;;;62.17;58.42;;;14.00;99.90;;;;;;4975698;28;20779;-56
2022/10/05 02:00:46;;;;;;;63.53;59.63;;;14.00;99.90;;;;;;4972881;28;20432;-57
2022/10/05 02:03:20;;;;;;;54.72;51.50;;;14.00;99.90;;;;;;4972357;28;20405;-54
2022/10/05 02:05:53;;;;;;;50.30;47.15;;;13.90;99.90;;;;;;4972545;28;20431;-55
2022/10/05 02:08:37;;;;;;;51.70;48.53;;;13.90;99.90;;;;;;4972286;28;20682;-56
2022/10/05 02:11:10;;;;;;;54.80;51.05;;;13.90;99.90;;;;;;4972798;28;20680;-57
2022/10/05 02:13:44;;;;;;;51.42;48.25;;;13.90;99.90;;;;;;4969576;28;20392;-57
2022/10/05 02:16:17;;;;;;;53.33;50.03;;;13.90;99.90;;;;;;4970321;28;20389;-55
2022/10/05 02:19:24;;;;;;;47.83;45.05;;;13.90;99.90;;;;;;4972072;28;20424;-55
2022/10/05 02:21:57;;;;;;;58.75;55.17;;;13.90;99.90;;;;;;4969599;28;20495;-54
2022/10/05 02:24:30;;;;;;;56.08;52.72;;;14.00;99.90;;;;;;4969996;28;20395;-57
2022/10/05 02:26:56;;;;;;;50.30;47.30;;;13.90;99.90;;;;;;4971917;28;20471;-58
2022/10/05 02:29:25;;;;;;;51.53;48.00;;;14.00;99.90;;;;;;4972915;28;20392;-54
2022/10/05 02:32:00;;;;;;;52.08;48.78;;;14.00;99.90;;;;;;4974135;28;20406;-54
2022/10/05 02:34:30;;;;;;;48.25;45.10;;;14.00;99.90;;;;;;4974464;28;20384;-58
2022/10/05 02:37:17;;;;;;;49.55;46.55;;;14.00;99.90;;;;;;4975163;28;20392;-55
2022/10/05 02:40:03;;;;;;;50.05;46.88;;;14.00;99.90;;;;;;4975905;28;20422;-57
2022/10/05 02:42:35;;;;;;;52.23;49.13;;;13.90;99.90;;;;;;4978433;28;20422;-55
2022/10/05 02:45:26;;;;;;;48.72;45.47;;;13.90;99.90;;;;;;4978191;28;20515;-56
2022/10/05 02:47:58;;;;;;;52.15;48.90;;;14.00;99.90;;;;;;4968606;28;20396;-57
2022/10/05 02:50:48;;;;;;;56.13;52.70;;;14.00;99.90;;;;;;4976325;28;20408;-58
2022/10/05 02:53:28;;;;;;;50.47;47.50;;;13.90;99.90;;;;;;4976662;28;20410;-56
2022/10/05 02:56:01;;;;;;;53.03;49.63;;;13.90;99.90;;;;;;4976994;28;20391;-59
2022/10/05 02:58:33;;;;;;;54.37;50.87;;;14.00;99.90;;;;;;4976554;28;20482;-57
2022/10/05 03:01:34;;;;;;;54.35;51.15;;;14.00;99.90;;;;;;4995341;28;20923;-56
2022/10/05 03:04:09;;;;;;;52.15;49.03;;;13.90;99.90;;;;;;4978343;28;20456;-58
2022/10/05 03:06:43;;;;;;;48.33;45.42;;;14.00;99.90;;;;;;4977971;28;20418;-58
2022/10/05 03:09:09;;;;;;;49.45;46.50;;;14.00;99.90;;;;;;4977044;28;20409;-57
2022/10/05 03:11:50;;;;;;;53.35;49.95;;;14.00;99.90;;;;;;4978237;28;20395;-55
2022/10/05 03:14:46;;;;;;;50.50;47.20;;;14.00;99.90;;;;;;4977474;28;20423;-58
2022/10/05 03:17:19;;;;;;;50.93;47.70;;;14.00;99.90;;;;;;4977719;28;20476;-58
2022/10/05 03:20:19;;;;;;;54.67;51.17;;;14.00;99.90;;;;;;4981150;28;20417;-56
2022/10/05 03:22:53;;;;;;;54.30;50.97;;;14.00;99.90;;;;;;4979007;28;20448;-59
2022/10/05 03:25:32;;;;;;;52.30;49.03;;;13.90;99.90;;;;;;4979245;28;20857;-59
2022/10/05 03:28:09;;;;;;;50.63;47.53;;;13.90;99.90;;;;;;4994053;28;20406;-56
2022/10/05 03:30:52;;;;;;;49.78;46.78;;;13.90;99.90;;;;;;4975958;28;20414;-58
2022/10/05 03:33:20;;;;;;;55.60;52.30;;;13.90;99.90;;;;;;4976759;28;20729;-58
2022/10/05 03:36:10;;;;;;;53.88;50.67;;;13.90;99.90;;;;;;4977338;28;20650;-57
2022/10/05 03:38:42;;;;;;;46.63;43.97;;;13.90;99.90;;;;;;4976895;28;20401;-58
2022/10/05 03:41:18;;;;;;;48.35;45.30;;;14.00;99.90;;;;;;4977142;28;20406;-59
2022/10/05 03:44:07;;;;;;;50.13;47.20;;;14.00;99.90;;;;;;4978742;28;20385;-57
2022/10/05 03:47:07;;;;;;;49.95;46.90;;;14.00;99.90;;;;;;4978561;28;20394;-58
2022/10/05 03:50:03;;;;;;;55.03;51.53;;;14.00;99.90;;;;;;4978474;28;20390;-57
2022/10/05 03:52:51;;;;;;;49.88;46.83;;;13.90;99.90;;;;;;4976253;28;20385;-57
2022/10/05 03:55:28;;;;;;;51.17;47.97;;;13.90;99.90;;;;;;4976016;28;20912;-58
2022/10/05 03:57:57;;;;;;;56.33;52.93;;;14.00;99.90;;;;;;4976133;28;20390;-57
2022/10/05 04:00:23;;;;;;;50.22;47.08;;;14.00;99.90;;;;;;4992574;28;20445;-57
2022/10/05 04:02:59;;;;;;;54.13;50.40;;;13.90;99.90;;;;;;4974774;28;20395;-55
2022/10/05 04:05:29;;;;;;;57.15;53.80;;;13.90;99.90;;;;;;4974784;28;20391;-58
2022/10/05 04:08:01;;;;;;;55.08;51.85;;;13.90;99.90;;;;;;4975853;28;20430;-58
2022/10/05 04:10:30;;;;;;;55.63;52.35;;;13.90;99.90;;;;;;4977204;28;20398;-58
2022/10/05 04:13:26;;;;;;;56.75;53.17;;;13.90;99.90;;;;;;4995034;28;20733;-56
2022/10/05 04:16:09;;;;;;;57.22;53.83;;;13.90;99.90;;;;;;4944875;28;20824;-57
2022/10/05 04:18:49;;;;;;;52.83;49.70;;;13.90;99.90;;;;;;4977141;28;20453;-57
2022/10/05 04:21:34;;;;;;;62.38;58.25;;;13.90;99.90;;;;;;4978050;28;20569;-59
2022/10/05 04:24:13;;;;;;;59.13;55.63;;;13.90;99.90;;;;;;4977978;28;20610;-58
2022/10/05 04:27:00;;;;;;;64.93;60.80;;;13.90;99.90;;;;;;4976900;28;20383;-59
2022/10/05 04:29:38;;;;;;;60.40;56.67;;;13.80;99.90;;;;;;4992494;28;20501;-59
2022/10/05 04:32:19;;;;;;;68.05;64.05;;;13.80;99.90;;;;;;4991159;28;20619;-55
2022/10/05 04:34:52;;;;;;;64.35;60.63;;;13.80;99.90;;;;;;4990377;28;20378;-58
2022/10/05 04:37:46;;;;;;;62.08;58.42;;;13.80;99.90;;;;;;4975290;28;20382;-57
2022/10/05 04:40:34;;;;;;;63.65;59.78;;;13.80;99.90;;;;;;4965512;28;20442;-59
2022/10/05 04:43:32;;;;;;;65.03;61.23;;;13.80;99.90;;;;;;4974593;28;20402;-56
2022/10/05 04:46:09;;;;;;;61.72;57.70;;;13.80;99.90;;;;;;4992110;28;20426;-55
2022/10/05 04:49:01;;;;;;;63.58;59.80;;;13.80;99.90;;;;;;4974319;28;20391;-59
2022/10/05 04:51:49;;;;;;;60.88;57.25;;;13.80;99.90;;;;;;4990393;28;20485;-57
2022/10/05 04:54:27;;;;;;;61.90;58.42;;;13.80;99.90;;;;;;4990679;28;20492;-57
2022/10/05 04:57:02;;;;;;;61.57;57.83;;;13.80;99.90;;;;;;4989119;28;20421;-57
2022/10/05 04:59:51;;;;;;;60.25;56.45;;;13.80;99.90;;;;;;4986574;28;20422;-58
2022/10/05 05:02:23;;;;;;;56.40;52.70;;;13.80;99.90;;;;;;4971407;28;20781;-58
2022/10/05 05:04:54;;;;;;;56.20;52.65;;;13.80;99.90;;;;;;4963941;28;20735;-59
2022/10/05 05:07:47;;;;;;;59.45;55.75;;;13.80;99.90;;;;;;4980674;28;20386;-59
2022/10/05 05:10:31;;;;;;;54.90;51.40;;;13.80;99.90;;;;;;4964463;28;20513;-59
2022/10/05 05:13:08;;;;;;;60.53;56.90;;;13.80;99.90;;;;;;4963810;28;20532;-59
2022/10/05 05:15:36;;;;;;;59.95;56.15;;;13.70;99.90;;;;;;4963686;28;20814;-58
2022/10/05 05:18:24;;;;;;;60.45;56.80;;;13.70;99.90;;;;;;4963954;28;20378;-58
2022/10/05 05:21:16;;;;;;;59.90;55.95;;;13.70;99.90;;;;;;4983461;28;20829;-59
2022/10/05 05:24:10;;;;;;;74.07;69.88;;;13.70;99.90;;;;;;4938549;28;20395;-56
2022/10/05 05:26:50;;;;;;;71.80;67.53;;;13.70;99.90;;;;;;4985754;28;20501;-56
2022/10/05 05:29:27;;;;;;;71.45;67.22;;;13.70;99.90;;;;;;4968485;28;20398;-57
2022/10/05 05:32:16;;;;;;;73.15;68.88;;;13.80;99.90;;;;;;4986420;28;21071;-56
2022/10/05 05:34:59;;;;;;;72.07;67.72;;;13.80;99.90;;;;;;4969845;28;20405;-55
2022/10/05 05:37:33;;;;;;;74.13;69.60;;;13.80;99.90;;;;;;4986314;28;20401;-57
2022/10/05 05:40:29;;;;;;;78.75;74.25;;;13.80;99.90;;;;;;4969546;28;20398;-57
2022/10/05 05:43:01;;;;;;;72.65;68.35;;;13.80;99.90;;;;;;4985162;28;20414;-59
2022/10/05 05:45:42;;;;;;;74.47;70.13;;;13.80;99.90;;;;;;4983238;28;20405;-56
2022/10/05 05:48:29;;;;;;;71.70;67.80;;;13.80;99.90;;;;;;4983076;28;20500;-56
2022/10/05 05:51:00;;;;;;;70.93;66.72;;;13.90;99.90;;;;;;4982443;28;20414;-54
2022/10/05 05:53:33;;;;;;;71.57;67.45;;;13.80;99.90;;;;;;4982081;28;20387;-58
2022/10/05 05:56:13;;;;;;;68.97;65.03;;;13.80;99.90;;;;;;4962080;28;20422;-57
2022/10/05 05:58:49;;;;;;;71.60;67.43;;;13.80;99.90;;;;;;4959703;28;20409;-58
2022/10/05 06:01:25;;;;;;;69.00;64.90;;;13.80;99.90;;;;;;4977291;28;20430;-54
2022/10/05 06:04:13;;;;;;;70.88;66.68;;;13.80;99.90;;;;;;4957684;28;20816;-56
2022/10/05 06:06:44;;;;;;;69.47;65.38;;;13.80;99.90;;;;;;4975434;28;20701;-61
2022/10/05 06:09:34;;;;;;;56.35;52.78;;;13.80;99.90;;;;;;4954796;28;20624;-59
2022/10/05 06:12:14;;;;;;;54.05;50.72;;;13.80;99.90;;;;;;4957571;28;20390;-55
2022/10/05 06:14:49;;;;;;;63.80;60.00;;;13.80;99.90;;;;;;4959390;28;20509;-58
2022/10/05 06:17:44;;;;;;;62.28;58.53;;;13.80;99.90;;;;;;4978597;28;20754;-59
2022/10/05 06:20:25;;;;;;;57.97;54.28;;;13.90;99.90;;;;;;4960438;28;20772;-58
2022/10/05 06:22:51;;;;;;;62.03;58.28;;;13.90;99.90;;;;;;4959849;28;20478;-59
2022/10/05 06:25:59;;;;;;;59.83;56.13;;;13.90;99.90;;;;;;4957640;28;20786;-58
2022/10/05 06:28:28;;;;;;;53.37;49.97;;;13.90;99.90;;;;;;4880143;29;21121;-59
2022/10/05 06:31:06;;;;;;;64.90;60.78;;;13.90;99.90;;;;;;4945406;28;20422;-56
2022/10/05 06:33:53;;;;;;;67.53;63.38;;;13.90;99.90;;;;;;4974708;28;20417;-58
2022/10/05 06:36:41;;;;;;;62.25;58.45;;;14.00;99.90;;;;;;4957741;28;20552;-56
2022/10/05 06:39:24;;;;;;;57.15;53.65;;;14.00;99.90;;;;;;4955796;28;20457;-59
2022/10/05 06:41:53;;;;;;;61.13;57.22;;;14.00;99.90;;;;;;4956009;28;20407;-58
2022/10/05 06:44:52;;;;;;;66.80;62.78;;;13.90;99.90;;;;;;4959027;28;20398;-57
2022/10/05 06:47:45;;;;;;;64.97;61.07;;;13.90;99.90;;;;;;4978906;28;20674;-59
2022/10/05 06:50:35;;;;;;;66.60;62.60;;;13.90;99.90;;;;;;4978756;28;20394;-59
2022/10/05 06:53:18;;;;;;;62.42;58.50;;;13.90;99.90;;;;;;4960783;28;20687;-59
2022/10/05 06:56:13;;;;;;;73.88;69.30;;;13.90;99.90;;;;;;4977227;28;20382;-59
2022/10/05 06:59:03;;;;;;;68.63;64.63;;;13.90;99.90;;;;;;4957834;28;20454;-57
2022/10/05 07:01:53;;;;;;;71.18;66.95;;;14.00;99.90;;;;;;4975335;28;20793;-58
2022/10/05 07:04:39;;;;;;;63.47;59.60;;;13.90;99.90;;;;;;4954353;28;20798;-57
2022/10/05 07:07:31;;;;;;;66.32;62.30;;;14.00;99.90;;;;;;4952605;28;20649;-56
2022/10/05 07:10:06;;;;;;;71.00;66.67;;;14.00;99.90;;;;;;4949738;28;21016;-58
2022/10/05 07:12:52;;;;;;;68.80;64.57;;;14.00;99.90;;;;;;4966973;28;20397;-55
2022/10/05 07:15:38;;;;;;;67.57;63.27;;;14.00;99.90;;;;;;4946926;28;20398;-57
2022/10/05 07:18:33;;;;;;;61.55;57.78;;;14.10;99.90;;;;;;4964964;28;21038;-57
2022/10/05 07:21:23;;;;;;;53.22;49.72;;;14.00;99.90;;;;;;4950018;28;20742;-58
2022/10/05 07:24:10;;;;;;;52.70;49.03;;;14.10;99.90;;;;;;4950505;28;20642;-55
2022/10/05 07:26:48;;;;;;;53.55;50.03;;;14.10;99.90;;;;;;4971124;28;20439;-57
2022/10/05 07:29:32;;;;;;;52.15;48.75;;;14.10;99.90;;;;;;4958300;28;20437;-55
2022/10/05 07:32:16;;;;;;;52.63;49.40;;;14.10;99.90;;;;;;4957093;28;20762;-57
2022/10/05 07:35:04;;;;;;;46.33;43.35;;;14.10;99.90;;;;;;4978269;28;20405;-54
2022/10/05 07:37:53;;;;;;;52.13;48.57;;;14.10;99.90;;;;;;4960579;28;20481;-58
2022/10/05 07:40:31;;;;;;;51.25;47.60;;;14.10;99.90;;;;;;4956527;28;20414;-58
2022/10/05 07:43:06;;;;;;;52.13;48.72;;;14.20;99.90;;;;;;4955330;28;20634;-58
2022/10/05 07:45:39;;;;;;;49.63;46.58;;;14.20;99.90;;;;;;4955086;28;20635;-57
2022/10/05 07:48:15;;;;;;;53.22;49.85;;;14.30;99.90;;;;;;4955256;28;20832;-59
2022/10/05 07:50:55;;;;;;;54.23;50.87;;;14.30;99.90;;;;;;4971609;28;20387;-59
2022/10/05 07:53:36;;;;;;;52.27;49.13;;;14.30;99.90;;;;;;4954590;28;20461;-56
2022/10/05 07:56:12;;;;;;;51.25;47.78;;;14.30;99.90;;;;;;4956287;28;20386;-55
2022/10/05 07:58:51;;;;;;;54.20;50.95;;;14.30;99.90;;;;;;4958515;28;20643;-58
2022/10/05 08:01:40;;;;;;;57.92;54.50;;;14.40;99.90;;;;;;4977394;28;20775;-55
2022/10/05 08:04:26;;;;;;;57.22;53.83;;;14.40;99.90;;;;;;4964554;28;21021;-57
2022/10/05 08:07:03;;;;;;;57.00;53.35;;;14.40;99.90;;;;;;4963925;28;20398;-58
2022/10/05 08:09:36;;;;;;;59.33;55.88;;;14.50;99.90;;;;;;4963915;28;20379;-57
2022/10/05 08:12:06;;;;;;;57.95;54.33;;;14.50;99.90;;;;;;4967692;28;20421;-56
2022/10/05 08:15:04;;;;;;;60.13;56.60;;;14.50;99.90;;;;;;4967723;28;21035;-55
2022/10/05 08:17:52;;;;;;;57.95;54.55;;;14.50;99.90;;;;;;4967482;28;20403;-56
2022/10/05 08:20:42;;;;;;;58.72;55.20;;;14.60;99.90;;;;;;4965075;28;20480;-54
2022/10/05 08:23:41;;;;;;;54.47;51.17;;;14.60;99.90;;;;;;4965819;28;20425;-57
2022/10/05 08:26:26;;;;;;;62.85;59.03;;;14.60;99.90;;;;;;4961887;28;20390;-54
2022/10/05 08:29:24;;;;;;;59.13;55.65;;;14.70;99.90;;;;;;4963543;28;20390;-57
2022/10/05 08:31:56;;;;;;;58.60;54.90;;;14.70;99.90;;;;;;4963896;28;20398;-55
2022/10/05 08:34:44;;;;;;;55.75;52.45;;;14.80;99.90;;;;;;4962744;28;20490;-58
2022/10/05 08:37:23;;;;;;;57.92;54.33;;;14.80;99.90;;;;;;4981020;28;20413;-57
2022/10/05 08:40:07;;;;;;;57.25;53.95;;;14.80;99.90;;;;;;4961907;28;20467;-57
2022/10/05 08:42:43;;;;;;;58.28;54.95;;;14.90;99.90;;;;;;4962323;28;20386;-58
2022/10/05 08:45:09;;;;;;;56.07;52.67;;;14.90;99.90;;;;;;4962916;28;20448;-57
2022/10/05 08:47:56;;;;;;;55.30;52.07;;;15.00;99.90;;;;;;4979218;28;20882;-55
2022/10/05 08:50:24;;;;;;;51.83;48.58;;;15.00;99.90;;;;;;4966085;28;20395;-58
2022/10/05 08:53:11;;;;;;;52.13;48.97;;;15.00;99.90;;;;;;4965442;28;20413;-59
2022/10/05 08:56:35;;;;;;;56.75;53.35;;;15.00;99.90;;;;;;4965239;28;20410;-58
2022/10/05 08:59:38;;;;;;;52.80;49.60;;;15.00;99.90;;;;;;4946762;28;20666;-57
2022/10/05 09:02:15;;;;;;;52.38;49.22;;;15.10;99.90;;;;;;4964766;28;20442;-58
2022/10/05 09:04:59;;;;;;;53.80;50.60;;;15.10;99.90;;;;;;4980998;28;20433;-58
2022/10/05 09:08:15;;;;;;;52.83;49.72;;;15.10;99.90;;;;;;4983088;28;21080;-57
2022/10/05 09:10:59;;;;;;;57.83;54.17;;;15.00;99.90;;;;;;4888800;29;20409;-56
2022/10/05 09:14:02;;;;;;;56.97;53.47;;;15.10;99.90;;;;;;4976592;28;20460;-57
2022/10/05 09:17:00;;;;;;;51.83;48.77;;;15.10;99.90;;;;;;4964383;28;20971;-56
2022/10/05 09:19:50;;;;;;;49.80;46.83;;;15.10;99.90;;;;;;4963276;28;20390;-58
2022/10/05 09:22:49;;;;;;;50.47;47.58;;;15.20;99.90;;;;;;4980866;28;20420;-59
2022/10/05 09:25:42;;;;;;;57.50;54.10;;;15.20;99.90;;;;;;4951544;28;20378;-58
2022/10/05 09:28:28;;;;;;;57.83;54.47;;;15.30;99.90;;;;;;4980685;28;20390;-58
2022/10/05 09:31:02;;;;;;;58.67;55.40;;;15.30;99.90;;;;;;4961858;28;20395;-57
2022/10/05 09:33:50;;;;;;;57.25;53.85;;;15.40;99.90;;;;;;4966168;28;20402;-58
2022/10/05 09:36:39;;;;;;;58.58;55.13;;;15.40;99.90;;;;;;4967399;28;20390;-57
2022/10/05 09:39:38;;;;;;;53.73;50.47;;;15.50;99.90;;;;;;4965723;28;20669;-57
2022/10/05 09:42:31;;;;;;;54.78;51.63;;;15.50;99.90;;;;;;4962535;28;20410;-57
2022/10/05 09:45:12;;;;;;;56.95;53.42;;;15.60;99.90;;;;;;4963997;28;20413;-58
2022/10/05 09:48:03;;;;;;;59.38;55.88;;;15.60;99.90;;;;;;4982075;28;20393;-53
2022/10/05 09:50:28;;;;;;;58.37;55.00;;;15.70;99.90;;;;;;4969244;28;20402;-56
2022/10/05 10:00:06;;;;;;;60.95;57.33;;;15.80;99.90;;;;;;4976933;28;20832;-56
2022/10/05 10:02:31;;;;;;;61.33;57.72;;;15.80;99.90;;;;;;4977288;28;20605;-55
2022/10/05 10:05:19;;;;;;;64.40;60.73;;;15.80;99.90;;;;;;4956711;28;20449;-57
2022/10/05 10:08:19;;;;;;;63.38;59.58;;;15.90;99.90;;;;;;4960858;28;20708;-57
2022/10/05 10:11:05;;;;;;;64.35;60.75;;;15.80;99.90;;;;;;4960261;28;20441;-51
2022/10/05 10:14:01;;;;;;;67.50;63.70;;;15.80;99.90;;;;;;4956817;28;20401;-59
2022/10/05 10:17:05;;;;;;;64.35;60.53;;;15.70;99.90;;;;;;4970194;28;20382;-58
2022/10/05 10:20:00;;;;;;;68.20;64.22;;;15.70;99.90;;;;;;4955267;28;20394;-58
2022/10/05 10:22:29;;;;;;;64.75;61.05;;;15.60;99.90;;;;;;4953623;28;20707;-61
2022/10/05 10:25:05;;;;;;;69.68;65.88;;;15.60;99.90;;;;;;4954646;28;20517;-59
2022/10/05 10:27:52;;;;;;;68.45;64.22;;;15.60;99.90;;;;;;4957266;28;20494;-57
2022/10/05 10:30:40;;;;;;;68.85;64.85;;;15.60;99.90;;;;;;4956474;28;20703;-57
2022/10/05 10:33:39;;;;;;;73.45;69.20;;;15.70;99.90;;;;;;4958470;28;20599;-59
2022/10/05 10:36:21;;;;;;;76.57;72.28;;;15.70;99.90;;;;;;4955878;28;20466;-59
2022/10/05 10:39:21;;;;;;;76.53;72.20;;;15.70;99.90;;;;;;4956704;28;20662;-60
2022/10/05 10:41:53;;;;;;;73.93;69.85;;;15.70;99.90;;;;;;4956248;28;20406;-57
2022/10/05 10:45:00;;;;;;;88.47;82.88;;;15.70;99.90;;;;;;4971299;28;20422;-59
2022/10/05 10:47:31;;;;;;;75.10;70.82;;;15.70;99.90;;;;;;4972596;28;20383;-59
2022/10/05 10:50:18;;;;;;;71.18;67.13;;;15.70;99.90;;;;;;4954226;28;20995;-58
2022/10/05 10:53:13;;;;;;;70.40;66.47;;;15.60;99.90;;;;;;4954386;28;20665;-59
2022/10/05 10:55:54;;;;;;;78.15;73.88;;;15.60;99.90;;;;;;4956007;28;20622;-57
2022/10/05 10:58:48;;;;;;;78.78;74.30;;;15.60;99.90;;;;;;4954827;28;20727;-55
2022/10/05 11:01:52;;;;;;;80.60;76.10;;;15.60;99.90;;;;;;4971584;28;20782;-59
2022/10/05 11:04:28;;;;;;;85.80;81.00;;;15.70;99.90;;;;;;4953662;28;20755;-58
2022/10/05 11:07:25;;;;;;;82.50;77.87;;;15.70;99.90;;;;;;4953064;28;21041;-56
2022/10/05 11:10:12;;;;;;;78.18;73.93;;;15.70;99.90;;;;;;4952391;28;20440;-59
2022/10/05 11:13:35;;;;;;;84.20;79.72;;;15.70;99.90;;;;;;4954326;28;20682;-58
2022/10/05 11:16:25;;;;;;;77.78;73.57;;;15.70;99.90;;;;;;4875752;29;20817;-58
2022/10/05 11:19:31;;;;;;;74.30;70.15;;;15.70;99.90;;;;;;4893529;29;20473;-60
2022/10/05 11:22:13;;;;;;;77.28;72.72;;;15.70;99.90;;;;;;4949442;28;20723;-57
2022/10/05 11:25:17;;;;;;;88.55;83.43;;;15.60;99.90;;;;;;4957404;28;20659;-60
2022/10/05 11:27:49;;;;;;;85.22;80.55;;;15.60;99.90;;;;;;4976811;28;20441;-59
2022/10/05 11:30:39;;;;;;;87.95;83.05;;;15.60;99.90;;;;;;4958584;28;20791;-56
2022/10/05 11:33:33;;;;;;;78.13;73.78;;;15.60;99.90;;;;;;4976514;28;20611;-57
2022/10/05 11:36:11;;;;;;;77.20;73.10;;;15.70;99.90;;;;;;4955923;28;20904;-57
2022/10/05 11:38:58;;;;;;;78.00;73.70;;;15.70;99.90;;;;;;4953425;28;20703;-59
2022/10/05 11:41:35;;;;;;;75.40;71.28;;;15.80;99.90;;;;;;4955767;28;20441;-57
2022/10/05 11:44:14;;;;;;;78.30;74.13;;;15.80;99.90;;;;;;4954409;28;20547;-60
2022/10/05 11:46:50;;;;;;;79.35;74.90;;;15.70;99.90;;;;;;4954336;28;20713;-59
2022/10/05 11:49:31;;;;;;;83.38;78.82;;;15.80;99.90;;;;;;4950881;28;20390;-58
2022/10/05 11:52:29;;;;;;;78.95;74.45;;;15.80;99.90;;;;;;4949421;28;20695;-59
2022/10/05 11:54:58;;;;;;;75.25;71.03;;;15.80;99.90;;;;;;4965480;28;20611;-59
2022/10/05 11:57:38;;;;;;;74.00;70.15;;;15.80;99.90;;;;;;4947400;28;20556;-57
2022/10/05 12:00:17;;;;;;;76.55;72.50;;;15.80;99.90;;;;;;4966560;28;20539;-59
2022/10/05 12:03:11;;;;;;;75.50;71.30;;;15.80;99.90;;;;;;4947202;28;20476;-59
2022/10/05 12:05:58;;;;;;;72.30;68.30;;;15.90;99.90;;;;;;4949174;28;20374;-60
2022/10/05 12:08:49;;;;;;;75.57;71.38;;;15.80;99.90;;;;;;4949958;28;20706;-60
2022/10/05 12:11:42;;;;;;;73.40;69.45;;;15.80;99.90;;;;;;4968934;28;20640;-58
2022/10/05 12:14:14;;;;;;;70.38;66.68;;;15.90;99.90;;;;;;4948891;28;20437;-58
2022/10/05 12:16:57;;;;;;;68.43;64.82;;;15.90;99.90;;;;;;4965211;28;20390;-60
2022/10/05 12:19:30;;;;;;;66.20;62.47;;;15.90;99.90;;;;;;4966603;28;20393;-59
2022/10/05 12:22:08;;;;;;;69.10;65.40;;;15.90;99.90;;;;;;4949830;28;20587;-56
2022/10/05 12:24:37;;;;;;;66.28;62.67;;;16.00;99.90;;;;;;4953237;28;20405;-59
2022/10/05 12:27:18;;;;;;;64.10;60.63;;;16.00;99.90;;;;;;4972944;28;20398;-55
2022/10/05 12:34:53;;;;;;;72.10;68.30;;;16.20;99.90;;;;;;4989317;28;20713;-57
2022/10/05 12:37:51;;;;;;;74.00;70.20;;;16.20;99.90;;;;;;4973507;28;20416;-56
2022/10/05 12:40:35;;;;;;;67.27;63.63;;;16.40;99.90;;;;;;4973214;28;20435;-57
2022/10/05 12:43:23;;;;;;;76.10;72.15;;;16.30;99.90;;;;;;4973637;28;20966;-57
2022/10/05 12:46:13;;;;;;;72.05;67.85;;;16.30;99.90;;;;;;4975567;28;20671;-56
2022/10/05 12:48:39;;;;;;;77.47;73.43;;;16.30;99.90;;;;;;4978049;28;20408;-58
2022/10/05 12:51:25;;;;;;;69.22;65.43;;;16.40;99.90;;;;;;4977794;28;20800;-58
2022/10/05 12:54:05;;;;;;;72.88;68.97;;;16.50;99.90;;;;;;4977684;28;20389;-58
2022/10/05 12:56:45;;;;;;;71.50;67.90;;;16.50;99.90;;;;;;4992088;28;20711;-58
2022/10/05 12:59:30;;;;;;;67.68;64.00;;;16.70;99.90;;;;;;4974741;28;20494;-58
2022/10/05 13:02:07;;;;;;;70.68;66.90;;;16.70;99.90;;;;;;4973154;28;20424;-54
2022/10/05 13:04:42;;;;;;;71.47;67.47;;;16.70;99.90;;;;;;4972352;28;20657;-58
2022/10/05 13:07:46;;;;;;;70.10;66.43;;;16.70;99.90;;;;;;4990509;28;20764;-55
2022/10/05 13:10:38;;;;;;;71.53;67.57;;;16.60;99.90;;;;;;4933063;28;20485;-58
2022/10/05 13:13:23;;;;;;;71.38;67.63;;;16.70;99.90;;;;;;4939553;28;20436;-57
2022/10/05 13:15:51;;;;;;;73.30;69.43;;;16.70;99.90;;;;;;4991335;28;20451;-56
2022/10/05 13:18:36;;;;;;;76.75;72.75;;;16.70;99.90;;;;;;4984851;28;20736;-58
2022/10/05 13:21:11;;;;;;;69.25;65.45;;;16.70;99.90;;;;;;4986550;28;20428;-58
2022/10/05 13:23:52;;;;;;;72.65;68.55;;;16.80;99.90;;;;;;4984585;28;20771;-53
2022/10/05 13:26:29;;;;;;;71.63;67.85;;;16.80;99.90;;;;;;4980795;28;20440;-57
2022/10/05 13:29:15;;;;;;;69.18;65.22;;;16.80;99.90;;;;;;5002426;28;20846;-56
2022/10/05 13:31:45;;;;;;;76.90;72.80;;;16.90;99.90;;;;;;4982426;28;20543;-56
2022/10/05 13:34:21;;;;;;;73.05;69.15;;;16.90;99.90;;;;;;4977702;28;20462;-54
2022/10/05 13:37:28;;;;;;;71.87;67.80;;;16.90;99.90;;;;;;4977584;28;20394;-58
2022/10/05 13:40:07;;;;;;;69.47;65.60;;;17.00;99.90;;;;;;4978953;28;20393;-56
2022/10/05 13:42:35;;;;;;;77.33;73.23;;;17.00;99.90;;;;;;4976508;28;20378;-56
2022/10/05 13:45:25;;;;;;;70.63;66.72;;;17.10;99.90;;;;;;4974238;28;20395;-59
2022/10/05 13:48:33;;;;;;;74.90;70.85;;;17.10;99.90;;;;;;4969865;28;20492;-54
2022/10/05 13:51:42;;;;;;;69.57;65.93;;;17.10;99.90;;;;;;4977017;28;20639;-59
2022/10/05 13:54:26;;;;;;;69.05;65.20;;;17.10;99.90;;;;;;4973343;28;20679;-55
2022/10/05 13:57:16;;;;;;;76.70;72.53;;;17.10;99.90;;;;;;4972139;28;20531;-59